Little Rock, AR

11:07 AM CDT on August 29, 2016 (GMT -0500)
Democrat-Gazette Downtown | | Change Station

Elev 371 ft 34.74 °N, 92.27 °W | Updated 9 seconds ago

Mostly Cloudy
Mostly Cloudy
88.9 °F
Feels Like 96 °F
N
0.2
Wind Variable Wind from NNE
Gusts 2.5 mph

Today
High -- | Low -- °F
--% Chance of Precip.
Yesterday
High -- | Low -- °F
Precip. -- in
Pressure 30.11 in
Visibility 10.0 miles
Clouds Few 6000 ft
Mostly Cloudy 25000 ft
Heat Index 96 °F
Dew Point 72 °F
Humidity 58%
Rainfall 0.00 in
Snow Depth Not available.
6:40 AM 7:38 PM
Waning Crescent, 8% visible
METAR KLIT 291553Z 01003KT 10SM FEW060 BKN250 31/24 A3011 RMK AO2 SLP196 T03110239
Pressure 30.11 in
Visibility 10.0 miles
Clouds Few 6000 ft
Mostly Cloudy 25000 ft
Heat Index 96 °F
Dew Point 72 °F
Humidity 58%
Rainfall 0.00 in
Snow Depth Not available.
6:40 AM 7:38 PM
Waning Crescent, 8% visible
METAR KLIT 291553Z 01003KT 10SM FEW060 BKN250 31/24 A3011 RMK AO2 SLP196 T03110239

10-Day Weather Forecast

Almanac

Astronomy

Aug. 29, 2016 Rise Set
Actual Time
Civil Twilight
Nautical Twilight
Astronomical Twilight
Moon
Length of Visible Light
Length of Day
Tomorrow will be .
, % of the Moon is Illuminated

Today's Extremes

State Highs State Lows

Community

WunderPhotos

Upload Photos

1,935,867 photos uploaded!

WunderBlog® & News

Nearby

Air Quality

  Air Quality AQ Index Pollutant
Not available.

Snow Depth

Station Depth Elevation

Earthquake Activity

City Distance Mag. Time & Date
Minimum magnitude displayed is 2.5.

Coastal Water Temperatures

Place Temperature

Stations

Nearby Weather Stations

Station Location Temp. Windchill Dew Point Humidity Wind Precip. Elev Updated Type
                   

Watches & Warnings

There are currently no watches in effect.